Time;durP1;ratioP1;P1;durP2;ratioP2;P2;SDS_P1;SDS_P2;PMS_P1;PMS_P2;Temp;Humidity;BMP_temperature;BMP_pressure;BME280_temperature;BME280_humidity;BME280_pressure;Samples;Min_cycle;Max_cycle;Signal;HPM_P1;HPM_P2
2023/04/06 00:02:20;;;;;;;10.88;5.90;;;3.70;99.90;;;;;;5013077;28;20103;-37
2023/04/06 00:04:47;;;;;;;10.60;6.43;;;3.70;99.90;;;;;;5031407;28;20057;-37
2023/04/06 00:07:13;;;;;;;9.25;6.60;;;3.60;99.90;;;;;;5031547;28;20096;-37
2023/04/06 00:09:40;;;;;;;8.32;6.03;;;3.60;99.90;;;;;;5014311;28;20053;-38
2023/04/06 00:12:07;;;;;;;8.63;5.45;;;3.60;99.90;;;;;;5031249;28;20061;-38
2023/04/06 00:14:34;;;;;;;9.55;6.18;;;3.60;99.90;;;;;;5031049;28;20072;-37
2023/04/06 00:17:02;;;;;;;8.50;6.20;;;3.60;99.90;;;;;;5013541;28;20049;-37
2023/04/06 00:19:29;;;;;;;11.82;6.75;;;3.60;99.90;;;;;;5031514;28;20064;-37
2023/04/06 00:21:56;;;;;;;8.35;6.28;;;3.50;99.90;;;;;;5031838;28;20319;-37
2023/04/06 00:24:23;;;;;;;9.65;6.43;;;3.50;99.90;;;;;;5013397;28;20496;-37
2023/04/06 00:26:49;;;;;;;7.22;6.22;;;3.40;99.90;;;;;;5031539;28;20084;-38
2023/04/06 00:29:16;;;;;;;9.48;5.97;;;3.40;99.90;;;;;;5031568;28;20060;-37
2023/04/06 00:31:43;;;;;;;10.93;7.00;;;3.40;99.90;;;;;;5031633;28;20448;-38
2023/04/06 00:34:11;;;;;;;7.55;6.32;;;3.40;99.90;;;;;;5031443;28;20135;-38
2023/04/06 00:36:38;;;;;;;24.13;7.30;;;3.30;99.90;;;;;;5013528;28;20091;-38
2023/04/06 00:39:05;;;;;;;10.80;7.20;;;3.30;99.90;;;;;;5013360;28;20049;-38
2023/04/06 00:41:32;;;;;;;9.75;7.35;;;3.30;99.90;;;;;;5031130;28;20064;-38
2023/04/06 00:43:59;;;;;;;11.05;6.82;;;3.20;99.90;;;;;;5031404;28;20054;-37
2023/04/06 00:46:25;;;;;;;8.73;7.20;;;3.20;99.90;;;;;;5012938;28;20049;-37
2023/04/06 00:48:52;;;;;;;9.80;6.78;;;3.20;99.90;;;;;;5013855;28;20057;-37
2023/04/06 00:51:20;;;;;;;7.32;6.20;;;3.20;99.90;;;;;;5013931;28;20049;-38
2023/04/06 00:53:47;;;;;;;9.00;6.63;;;3.20;99.90;;;;;;5031524;28;20060;-37
2023/04/06 00:56:14;;;;;;;8.82;6.38;;;3.10;99.90;;;;;;5014044;28;20088;-37
2023/04/06 00:58:41;;;;;;;9.52;6.65;;;3.10;99.90;;;;;;5016738;28;20436;-36
2023/04/06 01:01:07;;;;;;;9.57;6.55;;;3.00;99.90;;;;;;5035030;28;20056;-36
2023/04/06 01:03:34;;;;;;;9.32;6.47;;;3.10;99.90;;;;;;5017216;28;20092;-36
2023/04/06 01:06:01;;;;;;;9.98;7.05;;;3.00;99.90;;;;;;5035418;28;20062;-37
2023/04/06 01:08:29;;;;;;;11.05;7.10;;;3.00;99.90;;;;;;5033497;28;20072;-37
2023/04/06 01:10:56;;;;;;;8.55;6.57;;;2.90;99.90;;;;;;5001731;28;20049;-37
2023/04/06 01:13:23;;;;;;;10.13;6.47;;;3.00;99.90;;;;;;5033669;28;20089;-36
2023/04/06 01:15:50;;;;;;;10.27;6.85;;;2.90;99.90;;;;;;5033052;28;20037;-37
2023/04/06 01:18:17;;;;;;;12.50;6.68;;;2.90;99.90;;;;;;5021287;28;20061;-37
2023/04/06 01:20:43;;;;;;;9.63;6.88;;;2.90;99.90;;;;;;5017406;28;20135;-37
2023/04/06 01:23:12;;;;;;;9.20;6.50;;;2.80;99.90;;;;;;5016751;28;20115;-37
2023/04/06 01:25:38;;;;;;;8.45;6.75;;;2.80;99.90;;;;;;5017452;28;20064;-37
2023/04/06 01:28:05;;;;;;;8.05;6.43;;;2.80;99.90;;;;;;5034827;28;20053;-36
2023/04/06 01:30:32;;;;;;;8.65;6.72;;;2.80;99.90;;;;;;5033674;28;20111;-37
2023/04/06 01:32:59;;;;;;;8.00;5.72;;;2.70;99.90;;;;;;5033969;28;20099;-37
2023/04/06 01:35:27;;;;;;;6.68;5.75;;;2.70;99.90;;;;;;5034424;28;20486;-37
2023/04/06 01:37:53;;;;;;;10.77;6.93;;;2.70;99.90;;;;;;5033977;28;20461;-37
2023/04/06 01:40:22;;;;;;;10.35;7.15;;;2.60;99.90;;;;;;5033467;28;20132;-37
2023/04/06 01:42:48;;;;;;;12.05;7.05;;;2.60;99.90;;;;;;5033669;28;20123;-37
2023/04/06 01:45:15;;;;;;;10.25;6.90;;;2.60;99.90;;;;;;5003420;28;20136;-37
2023/04/06 01:47:42;;;;;;;12.15;7.93;;;2.60;99.90;;;;;;5033748;28;20056;-37
2023/04/06 01:50:10;;;;;;;9.77;6.78;;;2.50;99.90;;;;;;5034816;28;20087;-37
2023/04/06 01:52:36;;;;;;;8.88;6.80;;;2.50;99.90;;;;;;5016719;28;20092;-37
2023/04/06 01:55:04;;;;;;;9.65;6.57;;;2.50;99.90;;;;;;5034403;28;20076;-37
2023/04/06 01:57:32;;;;;;;11.55;7.68;;;2.50;99.90;;;;;;5033692;28;20045;-37
2023/04/06 01:59:59;;;;;;;8.82;7.07;;;2.40;99.90;;;;;;5015568;28;20050;-38
2023/04/06 02:02:25;;;;;;;11.38;6.95;;;2.40;99.90;;;;;;5032610;28;20124;-37
2023/04/06 02:04:52;;;;;;;7.65;5.75;;;2.40;99.90;;;;;;5033662;28;20049;-37
2023/04/06 02:07:19;;;;;;;9.98;7.55;;;2.40;99.90;;;;;;5015330;28;20045;-37
2023/04/06 02:09:46;;;;;;;11.45;7.22;;;2.30;99.90;;;;;;5034356;28;20076;-38
2023/04/06 02:12:13;;;;;;;8.70;7.40;;;2.30;99.90;;;;;;5032849;28;20076;-38
2023/04/06 02:14:41;;;;;;;8.98;6.78;;;2.30;99.90;;;;;;5016225;28;20049;-38
2023/04/06 02:17:08;;;;;;;12.52;7.53;;;2.30;99.90;;;;;;5033861;28;20096;-37
2023/04/06 02:19:35;;;;;;;9.30;7.05;;;2.30;99.90;;;;;;5033917;28;20049;-38
2023/04/06 02:22:01;;;;;;;10.68;6.90;;;2.20;99.90;;;;;;5033915;28;20054;-38
2023/04/06 02:24:28;;;;;;;8.93;6.72;;;2.20;99.90;;;;;;5033324;28;20084;-38
2023/04/06 02:26:55;;;;;;;13.57;7.28;;;2.20;99.90;;;;;;5015940;28;20053;-37
2023/04/06 02:29:22;;;;;;;8.82;6.43;;;2.20;99.90;;;;;;5033507;28;20096;-37
2023/04/06 02:31:50;;;;;;;11.00;7.43;;;2.20;99.90;;;;;;5033591;28;20053;-36
2023/04/06 02:34:18;;;;;;;9.32;6.80;;;2.10;99.90;;;;;;5015334;28;20493;-37
2023/04/06 02:36:45;;;;;;;9.32;7.25;;;2.10;99.90;;;;;;5015434;28;20057;-37
2023/04/06 02:39:12;;;;;;;10.75;6.97;;;2.10;99.90;;;;;;5033552;28;20103;-37
2023/04/06 02:41:39;;;;;;;10.88;7.22;;;2.10;99.90;;;;;;5033480;28;20056;-37
2023/04/06 02:44:08;;;;;;;10.93;7.47;;;2.10;99.90;;;;;;5015953;28;20489;-37
2023/04/06 02:46:35;;;;;;;8.77;6.85;;;2.10;99.90;;;;;;5032466;28;20412;-37
2023/04/06 02:49:03;;;;;;;10.82;7.68;;;2.00;99.90;;;;;;5033436;28;20053;-38
2023/04/06 02:51:30;;;;;;;10.18;7.50;;;2.00;99.90;;;;;;5015966;28;20064;-37
2023/04/06 02:53:56;;;;;;;12.23;7.82;;;2.00;99.90;;;;;;5015486;28;20056;-37
2023/04/06 02:56:23;;;;;;;12.32;7.70;;;2.00;99.90;;;;;;5032402;28;20046;-37
2023/04/06 02:58:50;;;;;;;9.10;7.55;;;1.90;99.90;;;;;;5032532;28;20053;-37
2023/04/06 03:01:17;;;;;;;9.80;7.25;;;1.90;99.90;;;;;;5032587;28;20049;-37
2023/04/06 03:03:43;;;;;;;10.45;8.00;;;1.90;99.90;;;;;;5033477;28;20092;-37
2023/04/06 03:06:12;;;;;;;10.25;8.32;;;1.90;99.90;;;;;;5031878;28;20568;-37
2023/04/06 03:08:38;;;;;;;11.82;7.80;;;1.90;99.90;;;;;;5032709;28;20467;-37
2023/04/06 03:11:05;;;;;;;12.52;8.23;;;1.90;99.90;;;;;;5031664;28;20046;-37
2023/04/06 03:13:32;;;;;;;10.32;7.40;;;1.90;99.90;;;;;;5031411;28;20080;-37
2023/04/06 03:15:59;;;;;;;10.98;7.80;;;1.80;99.90;;;;;;5031300;28;20076;-37
2023/04/06 03:18:26;;;;;;;10.18;7.60;;;1.80;99.90;;;;;;5014481;28;20055;-37
2023/04/06 03:20:54;;;;;;;12.52;8.13;;;1.80;99.90;;;;;;5014503;28;20053;-37
2023/04/06 03:23:22;;;;;;;11.30;8.13;;;1.80;99.90;;;;;;5013347;28;20211;-37
2023/04/06 03:25:48;;;;;;;9.43;8.13;;;1.80;99.90;;;;;;5032167;28;20475;-37
2023/04/06 03:28:15;;;;;;;10.18;7.75;;;1.80;99.90;;;;;;5031784;28;20133;-37
2023/04/06 03:30:46;;;;;;;13.30;8.57;;;1.80;99.90;;;;;;5013546;28;20478;-37
2023/04/06 03:33:12;;;;;;;9.38;7.55;;;1.70;99.90;;;;;;5014934;28;20107;-37
2023/04/06 03:35:39;;;;;;;11.10;7.00;;;1.80;99.90;;;;;;5031104;28;20050;-36
2023/04/06 03:38:06;;;;;;;16.15;8.00;;;1.70;99.90;;;;;;5013409;28;20054;-36
2023/04/06 03:40:34;;;;;;;11.07;7.45;;;1.70;99.90;;;;;;5031226;28;20577;-36
2023/04/06 03:43:02;;;;;;;9.80;7.55;;;1.70;99.90;;;;;;5030512;28;20082;-37
2023/04/06 03:45:29;;;;;;;11.63;7.68;;;1.70;99.90;;;;;;5031609;28;20061;-38
2023/04/06 03:47:56;;;;;;;10.90;7.25;;;1.70;99.90;;;;;;5030864;28;20135;-36
2023/04/06 03:50:22;;;;;;;10.13;7.70;;;1.70;99.90;;;;;;5013738;28;20049;-37
2023/04/06 03:52:49;;;;;;;9.13;7.57;;;1.60;99.90;;;;;;5031636;28;20081;-37
2023/04/06 03:55:16;;;;;;;11.00;8.27;;;1.60;99.90;;;;;;5014718;28;20548;-37
2023/04/06 03:57:44;;;;;;;11.95;8.18;;;1.60;99.90;;;;;;5012732;28;20367;-37
2023/04/06 04:00:12;;;;;;;11.00;8.27;;;1.50;99.90;;;;;;5011393;28;20444;-38
2023/04/06 04:02:39;;;;;;;15.50;8.88;;;1.50;99.90;;;;;;5028258;28;20151;-37
2023/04/06 04:05:07;;;;;;;13.98;8.60;;;1.60;99.90;;;;;;5031516;28;20381;-37
2023/04/06 04:07:34;;;;;;;10.13;8.23;;;1.50;99.90;;;;;;5031124;28;20099;-37
2023/04/06 04:10:00;;;;;;;11.52;8.18;;;1.50;99.90;;;;;;5013682;28;20057;-37
2023/04/06 04:12:27;;;;;;;12.68;9.02;;;1.50;99.90;;;;;;5028257;28;20099;-37
2023/04/06 04:14:55;;;;;;;10.15;8.35;;;1.50;99.90;;;;;;5031192;28;20784;-37
2023/04/06 04:17:22;;;;;;;12.48;8.55;;;1.50;99.90;;;;;;5031023;28;20046;-37
2023/04/06 04:19:49;;;;;;;13.55;9.57;;;1.50;99.90;;;;;;5031165;28;20111;-37
2023/04/06 04:22:16;;;;;;;14.52;9.13;;;1.40;99.90;;;;;;5030533;28;20448;-37
2023/04/06 04:24:43;;;;;;;14.70;9.98;;;1.40;99.90;;;;;;5031108;28;20480;-37
2023/04/06 04:27:09;;;;;;;15.07;10.27;;;1.40;99.90;;;;;;5013045;28;20089;-37
2023/04/06 04:29:36;;;;;;;13.07;10.05;;;1.40;99.90;;;;;;5031000;28;20146;-37
2023/04/06 04:32:05;;;;;;;13.00;9.70;;;1.40;99.90;;;;;;5029540;28;20045;-37
2023/04/06 04:34:32;;;;;;;12.88;10.10;;;1.30;99.90;;;;;;5012416;28;20184;-37
2023/04/06 04:36:59;;;;;;;15.18;10.80;;;1.30;99.90;;;;;;5030935;28;20053;-36
2023/04/06 04:39:26;;;;;;;16.35;10.52;;;1.40;99.90;;;;;;5011498;28;20045;-36
2023/04/06 04:41:53;;;;;;;13.02;9.55;;;1.30;99.90;;;;;;5030025;28;20081;-37
2023/04/06 04:44:20;;;;;;;13.75;9.65;;;1.30;99.90;;;;;;5012663;28;20441;-37
2023/04/06 04:46:47;;;;;;;12.40;9.57;;;1.30;99.90;;;;;;5030041;28;20532;-36
2023/04/06 04:49:16;;;;;;;18.90;10.60;;;1.30;99.90;;;;;;5030436;28;20132;-37
2023/04/06 04:51:43;;;;;;;15.30;9.25;;;1.30;99.90;;;;;;5012939;28;20103;-36
2023/04/06 04:54:09;;;;;;;12.27;8.68;;;1.30;99.90;;;;;;5013265;28;20096;-37
2023/04/06 04:56:36;;;;;;;13.10;9.95;;;1.30;99.90;;;;;;5011786;28;20049;-37
2023/04/06 04:59:08;;;;;;;17.55;9.38;;;1.30;99.90;;;;;;5012680;28;20053;-37
2023/04/06 05:01:35;;;;;;;14.93;9.60;;;1.30;99.90;;;;;;5030198;28;20042;-37
2023/04/06 05:04:02;;;;;;;16.83;9.90;;;1.30;99.90;;;;;;5029819;28;20079;-37
2023/04/06 05:06:30;;;;;;;12.63;10.38;;;1.30;99.90;;;;;;5030360;28;20111;-37
2023/04/06 05:08:57;;;;;;;13.32;9.93;;;1.30;99.90;;;;;;5012105;28;20132;-37
2023/04/06 05:11:25;;;;;;;15.35;10.45;;;1.30;99.90;;;;;;5028093;28;20049;-37
2023/04/06 05:13:51;;;;;;;16.73;11.80;;;1.20;99.90;;;;;;5013122;28;20049;-36
2023/04/06 05:16:18;;;;;;;17.95;10.57;;;1.20;99.90;;;;;;5012569;28;20084;-37
2023/04/06 05:18:45;;;;;;;13.82;10.40;;;1.30;99.90;;;;;;5007464;28;20085;-36
2023/04/06 05:21:12;;;;;;;16.30;11.25;;;1.30;99.90;;;;;;5024520;28;20053;-37
2023/04/06 05:23:41;;;;;;;15.23;10.68;;;1.30;99.90;;;;;;5024651;28;20160;-36
2023/04/06 05:26:07;;;;;;;17.15;9.95;;;1.30;99.90;;;;;;5023757;28;20501;-36
2023/04/06 05:28:35;;;;;;;17.20;10.60;;;1.30;99.90;;;;;;5029476;28;20057;-37
2023/04/06 05:31:02;;;;;;;14.65;10.32;;;1.30;99.90;;;;;;4999961;28;20077;-37
2023/04/06 05:33:29;;;;;;;21.23;10.48;;;1.30;99.90;;;;;;5015374;28;20057;-37
2023/04/06 05:35:55;;;;;;;19.15;11.07;;;1.30;99.90;;;;;;5010226;28;20053;-37
2023/04/06 05:38:22;;;;;;;18.13;11.00;;;1.40;99.90;;;;;;5028299;28;20082;-37
2023/04/06 05:40:50;;;;;;;23.08;11.45;;;1.40;99.90;;;;;;5012272;28;20409;-37
2023/04/06 05:43:17;;;;;;;18.50;12.05;;;1.40;99.90;;;;;;5030818;28;20053;-37
2023/04/06 05:45:45;;;;;;;14.98;11.20;;;1.40;99.90;;;;;;5015984;28;20124;-37
2023/04/06 05:48:12;;;;;;;15.32;11.02;;;1.40;99.90;;;;;;5015847;28;20042;-37
2023/04/06 05:50:39;;;;;;;15.50;11.65;;;1.50;99.90;;;;;;5032889;28;20065;-37
2023/04/06 05:53:05;;;;;;;16.67;11.40;;;1.50;99.90;;;;;;5032481;28;20448;-37
2023/04/06 05:55:32;;;;;;;14.98;10.77;;;1.50;99.90;;;;;;5027814;28;20127;-37
2023/04/06 05:58:00;;;;;;;22.35;12.50;;;1.50;99.90;;;;;;5029381;28;20448;-37
2023/04/06 06:00:27;;;;;;;20.85;13.30;;;1.60;99.90;;;;;;5015451;28;20058;-37
2023/04/06 06:02:54;;;;;;;20.48;11.80;;;1.70;99.90;;;;;;5033264;28;20054;-37
2023/04/06 06:05:21;;;;;;;14.02;10.77;;;1.70;99.90;;;;;;5033209;28;20132;-38
2023/04/06 06:07:48;;;;;;;18.88;11.57;;;1.80;99.90;;;;;;5032215;28;20165;-37
2023/04/06 06:10:14;;;;;;;18.70;12.27;;;1.80;99.90;;;;;;5016037;28;20093;-39
2023/04/06 06:12:41;;;;;;;17.52;11.23;;;1.90;99.90;;;;;;5015539;28;20053;-37
2023/04/06 06:15:10;;;;;;;17.63;10.73;;;2.00;99.90;;;;;;5033506;28;20049;-37
2023/04/06 06:17:38;;;;;;;16.35;11.90;;;2.10;99.90;;;;;;5033052;28;20056;-38
2023/04/06 06:20:06;;;;;;;14.80;10.93;;;2.10;99.90;;;;;;5015831;28;20092;-37
2023/04/06 06:22:33;;;;;;;19.50;11.45;;;2.20;99.90;;;;;;5026382;28;20049;-38
2023/04/06 06:25:00;;;;;;;17.15;12.05;;;2.30;99.90;;;;;;5033024;28;20103;-37
2023/04/06 06:27:27;;;;;;;18.83;12.90;;;2.40;99.90;;;;;;5014446;28;20057;-38
2023/04/06 06:29:53;;;;;;;21.48;12.10;;;2.50;99.90;;;;;;5028353;28;20053;-37
2023/04/06 06:32:22;;;;;;;18.17;12.48;;;2.50;99.90;;;;;;5031758;28;20265;-36
2023/04/06 06:34:48;;;;;;;16.38;11.88;;;2.60;99.90;;;;;;5032473;28;20516;-36
2023/04/06 06:37:15;;;;;;;17.58;12.00;;;2.80;99.90;;;;;;5032687;28;20053;-36
2023/04/06 06:39:42;;;;;;;15.02;12.02;;;2.80;99.90;;;;;;5032765;28;20391;-37
2023/04/06 06:42:09;;;;;;;22.20;12.77;;;2.90;99.90;;;;;;5033567;28;20077;-36
2023/04/06 06:44:36;;;;;;;18.17;11.85;;;3.00;99.90;;;;;;5032615;28;20053;-37
2023/04/06 06:47:02;;;;;;;15.40;12.55;;;3.20;99.90;;;;;;5012419;28;20057;-37
2023/04/06 06:49:31;;;;;;;18.23;11.65;;;3.30;99.90;;;;;;5012716;28;20445;-37
2023/04/06 06:51:57;;;;;;;15.45;12.52;;;3.40;99.90;;;;;;5011772;28;20054;-38
2023/04/06 06:54:24;;;;;;;19.52;12.60;;;3.50;99.90;;;;;;5013650;28;20103;-37
2023/04/06 06:56:51;;;;;;;16.25;11.90;;;3.60;99.90;;;;;;5012644;28;20064;-37
2023/04/06 06:59:18;;;;;;;17.83;12.23;;;3.70;99.90;;;;;;5013379;28;20050;-38
2023/04/06 07:01:45;;;;;;;17.55;11.55;;;3.80;99.90;;;;;;5010906;28;20413;-37
2023/04/06 07:04:11;;;;;;;17.95;11.98;;;4.00;99.90;;;;;;5013340;28;20104;-38
2023/04/06 07:06:40;;;;;;;19.17;12.35;;;4.20;99.90;;;;;;5013201;28;20053;-38
2023/04/06 07:09:06;;;;;;;14.43;11.27;;;4.30;99.90;;;;;;5012376;28;20072;-38
2023/04/06 07:11:33;;;;;;;15.65;12.20;;;4.40;99.90;;;;;;5012346;28;20050;-38
2023/04/06 07:14:00;;;;;;;19.52;11.70;;;4.60;99.90;;;;;;5012286;28;20058;-37
2023/04/06 07:16:27;;;;;;;16.00;11.00;;;4.70;99.90;;;;;;5012921;28;20045;-38
2023/04/06 07:18:54;;;;;;;15.07;12.43;;;4.80;99.90;;;;;;5013055;28;20046;-37
2023/04/06 07:21:21;;;;;;;17.50;12.30;;;4.90;99.90;;;;;;5011866;28;20046;-36
2023/04/06 07:23:50;;;;;;;17.63;11.73;;;5.00;99.90;;;;;;5011323;28;20054;-37
2023/04/06 07:26:17;;;;;;;15.80;11.48;;;5.10;99.90;;;;;;5013132;28;20104;-37
2023/04/06 07:28:44;;;;;;;17.92;11.35;;;5.30;99.90;;;;;;5012753;28;20049;-37
2023/04/06 07:31:10;;;;;;;18.50;11.88;;;5.40;99.90;;;;;;5012770;28;20449;-37
2023/04/06 07:33:37;;;;;;;14.88;11.65;;;5.50;99.90;;;;;;5011976;28;20053;-38
2023/04/06 07:36:05;;;;;;;18.70;12.68;;;5.70;99.90;;;;;;5011384;28;20410;-38
2023/04/06 07:38:31;;;;;;;19.33;12.48;;;5.80;99.90;;;;;;5011432;28;20053;-37
2023/04/06 07:41:02;;;;;;;19.83;12.23;;;6.00;99.90;;;;;;5012689;28;20050;-37
2023/04/06 07:43:30;;;;;;;19.77;12.05;;;6.10;99.90;;;;;;5012629;28;20731;-37
2023/04/06 07:45:57;;;;;;;19.65;12.73;;;6.30;99.90;;;;;;5020110;28;20492;-37
2023/04/06 07:48:23;;;;;;;18.23;12.18;;;6.40;99.90;;;;;;5032105;28;20096;-37
2023/04/06 07:50:50;;;;;;;18.58;12.15;;;6.50;99.90;;;;;;5031577;28;20421;-37
2023/04/06 07:53:17;;;;;;;18.10;12.60;;;6.60;99.90;;;;;;5032142;28;20053;-38
2023/04/06 07:55:44;;;;;;;15.57;11.88;;;6.80;99.90;;;;;;5032012;28;20084;-38
2023/04/06 07:58:12;;;;;;;21.33;12.15;;;6.90;99.90;;;;;;5013529;28;20144;-37
2023/04/06 08:00:39;;;;;;;16.67;12.55;;;7.10;99.90;;;;;;5014330;28;20052;-37
2023/04/06 08:03:06;;;;;;;20.70;12.43;;;7.20;99.90;;;;;;5031854;28;20049;-38
2023/04/06 08:05:33;;;;;;;17.55;11.85;;;7.30;99.90;;;;;;5013743;28;20497;-38
2023/04/06 08:08:00;;;;;;;19.40;13.02;;;7.50;99.90;;;;;;5031826;28;20111;-37
2023/04/06 08:10:27;;;;;;;16.40;12.00;;;7.60;99.90;;;;;;5031048;28;20128;-37
2023/04/06 08:12:54;;;;;;;20.92;13.27;;;7.80;99.90;;;;;;5014166;28;20464;-37
2023/04/06 08:15:22;;;;;;;19.75;12.05;;;7.90;99.90;;;;;;5031669;28;20049;-37
2023/04/06 08:17:50;;;;;;;18.90;12.05;;;8.20;99.90;;;;;;5014065;28;20111;-38
2023/04/06 08:20:17;;;;;;;18.55;13.15;;;8.30;99.80;;;;;;5030779;28;20144;-37
2023/04/06 08:22:43;;;;;;;23.55;12.30;;;8.60;99.90;;;;;;5013974;28;20049;-38
2023/04/06 08:25:10;;;;;;;20.85;11.88;;;8.70;99.20;;;;;;5031817;28;20088;-37
2023/04/06 08:27:37;;;;;;;17.00;12.10;;;8.80;98.90;;;;;;5031729;28;20085;-37
2023/04/06 08:30:04;;;;;;;16.27;11.90;;;8.90;98.80;;;;;;5014058;28;20053;-37
2023/04/06 08:32:32;;;;;;;27.60;12.00;;;9.00;99.00;;;;;;5030996;28;20128;-37
2023/04/06 08:34:59;;;;;;;21.85;12.25;;;9.20;98.80;;;;;;5031363;28;20057;-38
2023/04/06 08:37:26;;;;;;;21.33;12.68;;;9.30;98.40;;;;;;5014177;28;20088;-36
2023/04/06 08:39:53;;;;;;;18.88;11.60;;;9.50;98.20;;;;;;5014037;28;20062;-37
2023/04/06 08:42:21;;;;;;;19.60;12.18;;;9.70;97.50;;;;;;5031564;28;20131;-37
2023/04/06 08:44:48;;;;;;;17.60;12.38;;;9.80;96.80;;;;;;5012737;28;20099;-38
2023/04/06 08:47:14;;;;;;;16.38;11.02;;;9.80;96.30;;;;;;5013540;28;20056;-37
2023/04/06 08:49:43;;;;;;;21.45;11.75;;;9.90;95.40;;;;;;5013397;28;20050;-37
2023/04/06 08:52:10;;;;;;;18.85;12.15;;;9.90;94.20;;;;;;5013648;28;20097;-38
2023/04/06 08:54:37;;;;;;;19.80;12.35;;;9.90;94.40;;;;;;5012825;28;20549;-39
2023/04/06 08:57:04;;;;;;;20.73;12.93;;;10.00;94.60;;;;;;5031229;28;20049;-37
2023/04/06 08:59:31;;;;;;;18.05;12.32;;;10.10;94.50;;;;;;5031183;28;20060;-37
2023/04/06 09:01:58;;;;;;;21.80;12.25;;;10.20;94.10;;;;;;5031111;28;20088;-39
2023/04/06 09:04:25;;;;;;;18.75;12.88;;;10.20;93.80;;;;;;5011880;28;20072;-37
2023/04/06 09:06:54;;;;;;;22.42;13.13;;;10.30;93.30;;;;;;5030747;28;20124;-37
2023/04/06 09:09:20;;;;;;;19.02;12.82;;;10.30;93.00;;;;;;5029805;28;20405;-37
2023/04/06 09:11:48;;;;;;;20.23;13.27;;;10.30;92.80;;;;;;5013399;28;20042;-37
2023/04/06 09:14:15;;;;;;;18.67;12.30;;;10.40;93.00;;;;;;5031317;28;20055;-37
2023/04/06 09:16:42;;;;;;;23.42;13.55;;;10.50;92.50;;;;;;5013129;28;20045;-37
2023/04/06 09:19:09;;;;;;;19.48;12.93;;;10.60;92.20;;;;;;5016541;28;20053;-37
2023/04/06 09:21:36;;;;;;;20.83;13.27;;;10.70;92.20;;;;;;5016621;28;20547;-37
2023/04/06 09:24:05;;;;;;;21.23;14.25;;;10.70;91.60;;;;;;5033997;28;20052;-38
2023/04/06 09:26:33;;;;;;;20.38;13.35;;;10.70;91.50;;;;;;5034682;28;20111;-36
2023/04/06 09:29:01;;;;;;;19.33;13.38;;;10.80;91.30;;;;;;5016076;28;20412;-37
2023/04/06 09:31:28;;;;;;;22.27;13.15;;;10.80;91.00;;;;;;5033988;28;20052;-37
2023/04/06 09:33:55;;;;;;;25.00;14.13;;;10.80;90.80;;;;;;5014633;28;20049;-36
2023/04/06 09:36:31;;;;;;;25.27;13.68;;;10.90;90.90;;;;;;5013439;28;20041;-37
2023/04/06 09:38:59;;;;;;;24.25;14.07;;;10.90;91.20;;;;;;5017194;28;20068;-37
2023/04/06 09:41:28;;;;;;;23.77;14.77;;;11.10;90.80;;;;;;5034732;28;20456;-37
2023/04/06 09:44:03;;;;;;;22.75;14.60;;;11.10;89.80;;;;;;5034618;28;20061;-37
2023/04/06 09:46:31;;;;;;;23.30;14.77;;;11.10;87.40;;;;;;5033471;28;20497;-37
2023/04/06 09:48:58;;;;;;;23.38;15.20;;;11.10;89.60;;;;;;5017034;28;20045;-37
2023/04/06 09:51:25;;;;;;;24.92;15.35;;;11.20;89.70;;;;;;5034283;28;20099;-37
2023/04/06 09:53:53;;;;;;;24.42;15.48;;;11.30;88.20;;;;;;5034456;28;20497;-37
2023/04/06 09:56:26;;;;;;;25.65;16.30;;;11.40;87.20;;;;;;5034381;28;20140;-38
2023/04/06 09:59:00;;;;;;;30.25;16.70;;;11.50;86.80;;;;;;5033396;28;20500;-37
2023/04/06 10:01:27;;;;;;;25.25;16.02;;;11.60;87.80;;;;;;5033553;28;20050;-37
2023/04/06 10:03:57;;;;;;;26.67;16.15;;;11.80;86.20;;;;;;5033169;28;20528;-37
2023/04/06 10:06:25;;;;;;;26.02;16.40;;;11.90;83.60;;;;;;5015524;28;20053;-38
2023/04/06 10:08:54;;;;;;;29.30;16.70;;;11.90;83.70;;;;;;5015272;28;20045;-37
2023/04/06 10:11:21;;;;;;;30.52;16.95;;;12.00;83.30;;;;;;5030464;28;20080;-38
2023/04/06 10:13:48;;;;;;;26.67;17.05;;;12.10;83.60;;;;;;5029961;28;20080;-37
2023/04/06 10:16:16;;;;;;;33.25;17.85;;;12.30;82.50;;;;;;5030912;28;20045;-37
2023/04/06 10:18:45;;;;;;;33.65;18.05;;;12.40;80.50;;;;;;5015671;28;20115;-37
2023/04/06 10:21:13;;;;;;;32.40;18.88;;;12.50;79.30;;;;;;5032029;28;20069;-37
2023/04/06 10:23:42;;;;;;;29.23;19.98;;;12.50;78.40;;;;;;5033565;28;20099;-37
2023/04/06 10:26:13;;;;;;;30.38;18.42;;;12.60;76.60;;;;;;5016400;28;20102;-37
2023/04/06 10:28:42;;;;;;;28.52;18.10;;;12.70;74.20;;;;;;5033380;28;20050;-37
2023/04/06 10:31:09;;;;;;;28.63;18.60;;;12.70;74.70;;;;;;5033754;28;20046;-37
2023/04/06 10:33:37;;;;;;;33.90;19.95;;;12.90;73.70;;;;;;5032912;28;20061;-37
2023/04/06 10:36:13;;;;;;;34.03;19.17;;;12.90;72.60;;;;;;5033492;28;20053;-36
2023/04/06 10:38:40;;;;;;;28.38;18.40;;;13.00;72.70;;;;;;5033237;28;20071;-39
2023/04/06 10:41:08;;;;;;;31.00;19.98;;;13.10;72.60;;;;;;5015844;28;20144;-36
2023/04/06 10:43:36;;;;;;;33.00;21.08;;;13.10;71.80;;;;;;5015375;28;20055;-38
2023/04/06 10:46:03;;;;;;;35.58;20.25;;;13.10;71.20;;;;;;5031892;28;20408;-37
2023/04/06 10:48:39;;;;;;;30.85;19.73;;;13.00;70.70;;;;;;5033135;28;20056;-37
2023/04/06 10:51:09;;;;;;;39.03;21.13;;;12.90;68.30;;;;;;5033185;28;20041;-37
2023/04/06 10:53:36;;;;;;;34.55;20.65;;;12.90;69.80;;;;;;5033601;28;20095;-36
2023/04/06 10:56:02;;;;;;;34.60;21.58;;;12.80;70.20;;;;;;5032550;28;20548;-35
2023/04/06 10:58:30;;;;;;;32.25;21.33;;;12.80;70.30;;;;;;5033360;28;20045;-37
2023/04/06 11:00:57;;;;;;;34.30;22.10;;;12.80;69.70;;;;;;5015484;28;20061;-37
2023/04/06 11:03:24;;;;;;;35.03;23.17;;;12.70;69.40;;;;;;5013053;28;20042;-37
2023/04/06 11:05:52;;;;;;;34.92;22.90;;;12.70;70.00;;;;;;5029253;28;20485;-38
2023/04/06 11:08:30;;;;;;;37.88;23.45;;;12.70;69.00;;;;;;5015033;28;20574;-38
2023/04/06 11:11:07;;;;;;;36.10;23.98;;;12.70;68.60;;;;;;5032562;28;20046;-37
2023/04/06 11:13:45;;;;;;;37.88;24.13;;;12.70;69.60;;;;;;5030670;28;20056;-37
2023/04/06 11:16:15;;;;;;;43.22;25.63;;;12.80;69.90;;;;;;5013260;28;20053;-37
2023/04/06 11:18:52;;;;;;;42.65;24.27;;;12.80;69.50;;;;;;5032044;28;20490;-37
2023/04/06 11:21:31;;;;;;;41.83;24.80;;;12.90;69.10;;;;;;5029358;28;20503;-37
2023/04/06 11:24:05;;;;;;;43.10;24.92;;;12.90;69.70;;;;;;5025048;28;20099;-36
2023/04/06 11:26:32;;;;;;;41.33;25.38;;;13.00;67.50;;;;;;5013254;28;20563;-36
2023/04/06 11:28:59;;;;;;;41.78;25.52;;;13.00;67.20;;;;;;5008114;28;20524;-38
2023/04/06 11:31:26;;;;;;;40.50;24.60;;;12.90;67.20;;;;;;5013432;28;20061;-37
2023/04/06 11:33:56;;;;;;;41.17;25.52;;;13.00;66.80;;;;;;5032010;28;20054;-36
2023/04/06 11:36:25;;;;;;;39.13;24.80;;;13.00;67.20;;;;;;5029382;28;20102;-37
2023/04/06 11:38:51;;;;;;;41.17;25.10;;;13.20;67.50;;;;;;5031006;28;20127;-37
2023/04/06 11:41:18;;;;;;;36.13;25.65;;;13.30;67.30;;;;;;5013237;28;20068;-36
2023/04/06 11:43:47;;;;;;;39.00;25.42;;;13.30;66.40;;;;;;5012523;28;20567;-37
2023/04/06 11:46:18;;;;;;;38.03;24.88;;;13.30;65.00;;;;;;5024174;28;20049;-37
2023/04/06 11:48:45;;;;;;;38.03;25.38;;;13.30;65.60;;;;;;5002326;28;20112;-37
2023/04/06 11:51:12;;;;;;;35.40;24.73;;;13.40;65.90;;;;;;5021119;28;20041;-37
2023/04/06 11:53:46;;;;;;;38.15;24.90;;;13.40;65.60;;;;;;5029195;28;20045;-37
2023/04/06 11:56:27;;;;;;;39.60;25.35;;;13.40;64.60;;;;;;5011753;28;20042;-37
2023/04/06 11:58:58;;;;;;;41.70;28.80;;;13.50;64.30;;;;;;5024798;28;20049;-38
2023/04/06 12:01:25;;;;;;;43.78;30.30;;;13.50;65.40;;;;;;5031172;28;20089;-37
2023/04/06 12:03:52;;;;;;;43.53;29.13;;;13.50;65.20;;;;;;5013294;28;20485;-36
2023/04/06 12:06:19;;;;;;;43.53;29.27;;;13.60;65.00;;;;;;5031602;28;20050;-38
2023/04/06 12:08:47;;;;;;;52.50;32.13;;;13.70;63.70;;;;;;5027294;28;20041;-36
2023/04/06 12:11:14;;;;;;;47.15;28.40;;;13.70;63.70;;;;;;5013278;28;20056;-37
2023/04/06 12:13:41;;;;;;;47.42;31.63;;;13.80;63.80;;;;;;5029705;28;20060;-37
2023/04/06 12:16:08;;;;;;;64.47;44.22;;;13.90;63.20;;;;;;5008786;28;20042;-38
2023/04/06 12:18:35;;;;;;;92.65;62.47;;;13.90;63.40;;;;;;5006302;28;20046;-40
2023/04/06 12:21:02;;;;;;;63.13;44.25;;;14.10;63.30;;;;;;5031716;28;20456;-37
2023/04/06 12:23:28;;;;;;;39.20;26.90;;;14.20;62.70;;;;;;5031422;28;20050;-38
2023/04/06 12:25:57;;;;;;;38.22;24.95;;;14.30;62.90;;;;;;5013942;28;20085;-38
2023/04/06 12:28:26;;;;;;;38.90;25.60;;;14.50;62.90;;;;;;5013926;28;20054;-37
2023/04/06 12:30:53;;;;;;;37.45;23.13;;;14.50;62.60;;;;;;5031505;28;20442;-37
2023/04/06 12:33:20;;;;;;;34.70;22.92;;;14.60;62.20;;;;;;5031467;28;20050;-38
2023/04/06 12:35:47;;;;;;;40.15;24.50;;;14.60;62.90;;;;;;5031537;28;20053;-38
2023/04/06 12:38:14;;;;;;;38.13;24.23;;;14.50;61.80;;;;;;5031817;28;20061;-37
2023/04/06 12:40:41;;;;;;;36.67;24.50;;;14.40;62.20;;;;;;5031371;28;20099;-37